Time;durP1;ratioP1;P1;durP2;ratioP2;P2;SDS_P1;SDS_P2;PMS_P1;PMS_P2;Temp;Humidity;BMP_temperature;BMP_pressure;BME280_temperature;BME280_humidity;BME280_pressure;Samples;Min_cycle;Max_cycle;Signal;HPM_P1;HPM_P2
2022/10/09 00:00:11;;;;;;;20.77;14.10;;;;;;;;;;5096154;28;20051;-42
2022/10/09 00:02:37;;;;;;;26.02;14.35;;;;;;;;;;5095946;28;20241;-43
2022/10/09 00:05:02;;;;;;;21.43;12.97;;;;;;;;;;5095831;28;20012;-41
2022/10/09 00:07:27;;;;;;;21.33;14.05;;;;;;;;;;5095620;28;20722;-40
2022/10/09 00:09:52;;;;;;;24.50;13.07;;;;;;;;;;5095629;28;20397;-43
2022/10/09 00:12:17;;;;;;;20.93;14.47;;;;;;;;;;5095877;28;20302;-43
2022/10/09 00:14:43;;;;;;;18.70;13.57;;;;;;;;;;5095667;28;20233;-40
2022/10/09 00:17:08;;;;;;;25.83;15.70;;;;;;;;;;5095730;28;20237;-42
2022/10/09 00:19:33;;;;;;;25.03;15.23;;;;;;;;;;5095738;28;20233;-40
2022/10/09 00:21:58;;;;;;;20.77;13.53;;;;;;;;;;5095595;28;20268;-40
2022/10/09 00:24:24;;;;;;;26.10;14.60;;;;;;;;;;5095355;28;20248;-43
2022/10/09 00:26:49;;;;;;;27.53;15.87;;;;;;;;;;5095523;28;20244;-43
2022/10/09 00:29:14;;;;;;;24.67;15.60;;;;;;;;;;5095841;28;20707;-41
2022/10/09 00:31:39;;;;;;;28.40;15.85;;;;;;;;;;5095424;28;20103;-42
2022/10/09 00:34:04;;;;;;;25.80;16.07;;;;;;;;;;5095263;28;20024;-40
2022/10/09 00:36:30;;;;;;;27.65;16.50;;;;;;;;;;5095108;28;20276;-40
2022/10/09 00:38:56;;;;;;;27.38;15.43;;;;;;;;;;5094862;28;20529;-43
2022/10/09 00:41:23;;;;;;;32.85;16.48;;;;;;;;;;5095175;28;20016;-41
2022/10/09 00:43:50;;;;;;;29.23;17.05;;;;;;;;;;5095245;28;20056;-42
2022/10/09 00:46:19;;;;;;;29.77;17.08;;;;;;;;;;5095017;28;20008;-38
2022/10/09 00:48:46;;;;;;;24.55;15.85;;;;;;;;;;5095111;28;20122;-43
2022/10/09 00:51:11;;;;;;;27.63;16.60;;;;;;;;;;5094771;28;20476;-43
2022/10/09 00:53:36;;;;;;;25.35;16.90;;;;;;;;;;5094779;28;20028;-40
2022/10/09 00:56:01;;;;;;;24.08;16.67;;;;;;;;;;5094837;28;20065;-43
2022/10/09 00:58:27;;;;;;;27.38;16.13;;;;;;;;;;5094996;28;20020;-42
2022/10/09 01:00:52;;;;;;;30.65;16.10;;;;;;;;;;5094904;28;20020;-43
2022/10/09 01:03:17;;;;;;;29.50;15.73;;;;;;;;;;5094678;28;20448;-40
2022/10/09 01:05:50;;;;;;;27.42;17.00;;;;;;;;;;5094753;28;20016;-43
2022/10/09 01:08:19;;;;;;;25.75;15.70;;;;;;;;;;5094457;28;20383;-41
2022/10/09 01:10:48;;;;;;;27.77;15.63;;;;;;;;;;5094643;28;20024;-41
2022/10/09 01:13:16;;;;;;;28.02;16.65;;;;;;;;;;5094655;28;20024;-37
2022/10/09 01:15:44;;;;;;;30.15;17.75;;;;;;;;;;5094237;28;20185;-43
2022/10/09 01:18:29;;;;;;;34.17;17.50;;;;;;;;;;5094408;28;20071;-40
2022/10/09 01:21:01;;;;;;;23.85;16.58;;;;;;;;;;5094186;28;20028;-43
2022/10/09 01:23:38;;;;;;;23.92;15.65;;;;;;;;;;5094252;28;20550;-41
2022/10/09 01:26:06;;;;;;;30.88;16.15;;;;;;;;;;5094385;28;20031;-40
2022/10/09 01:28:32;;;;;;;28.02;16.50;;;;;;;;;;5094335;28;20095;-36
2022/10/09 01:31:00;;;;;;;24.73;17.02;;;;;;;;;;5093990;28;20058;-43
2022/10/09 01:33:26;;;;;;;30.00;17.23;;;;;;;;;;5093899;28;20391;-41
2022/10/09 01:35:52;;;;;;;27.20;17.02;;;;;;;;;;5094202;28;20039;-40
2022/10/09 01:38:19;;;;;;;26.95;16.88;;;;;;;;;;5093988;28;20077;-39
2022/10/09 01:40:44;;;;;;;37.67;16.33;;;;;;;;;;5093923;28;20024;-41
2022/10/09 01:43:10;;;;;;;31.02;16.10;;;;;;;;;;5094034;28;20482;-42
2022/10/09 01:45:36;;;;;;;31.20;16.10;;;;;;;;;;5094060;28;20028;-42
2022/10/09 01:48:01;;;;;;;29.67;16.27;;;;;;;;;;5093412;28;20107;-39
2022/10/09 01:50:29;;;;;;;29.35;16.02;;;;;;;;;;5093702;28;20099;-42
2022/10/09 01:52:59;;;;;;;33.22;16.27;;;;;;;;;;5093982;28;20047;-41
2022/10/09 01:55:53;;;;;;;29.73;15.77;;;;;;;;;;5093873;28;20114;-42
2022/10/09 01:58:22;;;;;;;29.52;16.48;;;;;;;;;;5071698;28;20379;-39
2022/10/09 02:00:50;;;;;;;27.33;16.15;;;;;;;;;;5093832;28;20020;-41
2022/10/09 02:03:15;;;;;;;30.97;17.30;;;;;;;;;;5093798;28;20051;-42
2022/10/09 02:05:41;;;;;;;27.60;17.98;;;;;;;;;;5093541;28;20056;-41
2022/10/09 02:08:08;;;;;;;37.80;17.52;;;;;;;;;;5093490;28;20026;-42
2022/10/09 02:10:33;;;;;;;21.80;15.80;;;;;;;;;;5093458;28;20074;-40
2022/10/09 02:12:59;;;;;;;26.83;16.58;;;;;;;;;;5093359;28;20024;-43
2022/10/09 02:15:33;;;;;;;26.17;15.18;;;;;;;;;;5093506;28;20072;-40
2022/10/09 02:18:02;;;;;;;27.10;15.90;;;;;;;;;;5092997;28;20054;-40
2022/10/09 02:20:30;;;;;;;25.50;15.95;;;;;;;;;;5093463;28;20103;-38
2022/10/09 02:22:56;;;;;;;24.05;15.55;;;;;;;;;;5093567;28;20085;-41
2022/10/09 02:25:22;;;;;;;29.05;17.33;;;;;;;;;;5092704;28;20016;-42
2022/10/09 02:27:54;;;;;;;31.05;19.55;;;;;;;;;;5092439;28;20019;-41
2022/10/09 02:30:20;;;;;;;29.98;18.13;;;;;;;;;;5092985;28;20024;-43
2022/10/09 02:32:50;;;;;;;29.27;16.90;;;;;;;;;;5093273;28;20023;-41
2022/10/09 02:35:15;;;;;;;34.20;17.38;;;;;;;;;;5093156;28;20036;-39
2022/10/09 02:37:40;;;;;;;27.08;17.17;;;;;;;;;;5093170;28;20399;-42
2022/10/09 02:40:06;;;;;;;26.63;16.97;;;;;;;;;;5092958;28;20103;-42
2022/10/09 02:42:31;;;;;;;28.92;17.80;;;;;;;;;;5092689;28;20244;-41
2022/10/09 02:44:56;;;;;;;28.02;17.02;;;;;;;;;;5093208;28;20133;-43
2022/10/09 02:47:21;;;;;;;30.50;18.97;;;;;;;;;;5093073;28;20070;-43
2022/10/09 02:49:47;;;;;;;31.35;17.80;;;;;;;;;;5092772;28;20360;-42
2022/10/09 02:52:12;;;;;;;31.77;18.17;;;;;;;;;;5092843;28;20020;-42
2022/10/09 02:54:37;;;;;;;29.92;18.02;;;;;;;;;;5093072;28;20026;-41
2022/10/09 02:57:02;;;;;;;33.33;19.25;;;;;;;;;;5092627;28;20040;-40
2022/10/09 02:59:28;;;;;;;29.87;18.90;;;;;;;;;;5093268;28;20024;-42
2022/10/09 03:01:53;;;;;;;32.47;19.23;;;;;;;;;;5093073;28;20268;-39
2022/10/09 03:04:18;;;;;;;33.78;20.55;;;;;;;;;;5092860;28;20070;-40
2022/10/09 03:06:43;;;;;;;35.40;21.95;;;;;;;;;;5092790;28;20016;-40
2022/10/09 03:09:09;;;;;;;31.55;20.75;;;;;;;;;;5092632;28;20020;-43
2022/10/09 03:11:34;;;;;;;29.33;18.60;;;;;;;;;;5092691;28;20119;-43
2022/10/09 03:13:59;;;;;;;29.90;19.77;;;;;;;;;;5093003;28;20459;-42
2022/10/09 03:16:25;;;;;;;32.17;18.80;;;;;;;;;;5092559;28;20032;-40
2022/10/09 03:18:51;;;;;;;35.35;21.48;;;;;;;;;;5092680;28;20018;-42
2022/10/09 03:21:17;;;;;;;40.15;23.77;;;;;;;;;;5092752;28;20360;-42
2022/10/09 03:23:43;;;;;;;48.45;20.17;;;;;;;;;;5092650;28;20539;-40
2022/10/09 03:26:13;;;;;;;31.42;17.92;;;;;;;;;;5092272;28;20103;-42
2022/10/09 03:28:39;;;;;;;30.63;19.77;;;;;;;;;;5092561;28;20391;-41
2022/10/09 03:31:05;;;;;;;43.53;23.08;;;;;;;;;;5096369;28;20020;-39
2022/10/09 03:33:30;;;;;;;38.95;24.02;;;;;;;;;;5096387;28;20020;-42
2022/10/09 03:35:56;;;;;;;36.90;23.40;;;;;;;;;;5096401;28;20042;-43
2022/10/09 03:38:21;;;;;;;37.08;21.95;;;;;;;;;;5096312;28;20095;-40
2022/10/09 03:40:46;;;;;;;37.47;23.53;;;;;;;;;;5096275;28;20020;-43
2022/10/09 03:43:12;;;;;;;42.78;24.60;;;;;;;;;;5096212;28;20683;-42
2022/10/09 03:45:40;;;;;;;41.50;23.30;;;;;;;;;;5096481;28;20099;-38
2022/10/09 03:48:06;;;;;;;45.20;24.92;;;;;;;;;;5096246;28;20028;-42
2022/10/09 03:50:31;;;;;;;33.80;21.60;;;;;;;;;;5096164;28;20065;-43
2022/10/09 03:52:56;;;;;;;34.92;22.38;;;;;;;;;;5096077;28;20020;-42
2022/10/09 03:55:21;;;;;;;35.83;21.63;;;;;;;;;;5095937;28;20081;-43
2022/10/09 03:57:47;;;;;;;35.83;21.03;;;;;;;;;;5096434;28;20031;-43
2022/10/09 04:00:12;;;;;;;37.58;21.50;;;;;;;;;;5096003;28;20232;-40
2022/10/09 04:02:37;;;;;;;33.70;21.30;;;;;;;;;;5095948;28;20459;-40
2022/10/09 04:05:03;;;;;;;36.87;22.23;;;;;;;;;;5096203;28;20451;-40
2022/10/09 04:07:28;;;;;;;39.38;23.70;;;;;;;;;;5077514;28;20662;-38
2022/10/09 04:09:54;;;;;;;60.83;31.95;;;;;;;;;;5095506;28;20032;-44
2022/10/09 04:12:19;;;;;;;57.63;29.75;;;;;;;;;;5095404;28;20082;-41
2022/10/09 04:14:44;;;;;;;69.30;36.53;;;;;;;;;;5095679;28;20024;-40
2022/10/09 04:17:09;;;;;;;55.90;32.65;;;;;;;;;;5095469;28;20114;-47
2022/10/09 04:19:35;;;;;;;49.57;28.27;;;;;;;;;;5095591;28;20028;-42
2022/10/09 04:22:00;;;;;;;59.03;28.90;;;;;;;;;;5095364;28;20273;-38
2022/10/09 04:24:25;;;;;;;38.22;24.65;;;;;;;;;;5095423;28;20051;-40
2022/10/09 04:26:50;;;;;;;36.73;21.33;;;;;;;;;;5095151;28;20497;-42
2022/10/09 04:29:16;;;;;;;62.75;23.77;;;;;;;;;;5077568;28;20596;-42
2022/10/09 04:31:42;;;;;;;34.97;21.87;;;;;;;;;;5095379;28;20024;-39
2022/10/09 04:34:07;;;;;;;36.08;21.90;;;;;;;;;;5095262;28;20252;-40
2022/10/09 04:36:32;;;;;;;37.13;23.63;;;;;;;;;;5095208;28;20422;-38
2022/10/09 04:38:57;;;;;;;38.53;22.37;;;;;;;;;;5095581;28;20236;-42
2022/10/09 04:41:23;;;;;;;38.20;21.90;;;;;;;;;;5094230;28;20237;-42
2022/10/09 04:43:52;;;;;;;41.00;24.37;;;;;;;;;;5095050;28;20020;-41
2022/10/09 04:46:17;;;;;;;41.50;24.63;;;;;;;;;;5094962;28;20708;-40
2022/10/09 04:48:43;;;;;;;43.22;23.92;;;;;;;;;;5094959;28;20044;-40
2022/10/09 04:51:09;;;;;;;46.50;23.90;;;;;;;;;;5094804;28;20431;-43
2022/10/09 04:53:35;;;;;;;44.90;22.13;;;;;;;;;;5094819;28;20023;-38
2022/10/09 04:56:01;;;;;;;42.65;25.25;;;;;;;;;;5094608;28;20471;-43
2022/10/09 04:58:26;;;;;;;40.97;23.95;;;;;;;;;;5094575;28;20043;-39
2022/10/09 05:00:52;;;;;;;40.30;22.60;;;;;;;;;;5094910;28;20083;-42
2022/10/09 05:03:17;;;;;;;52.93;26.83;;;;;;;;;;5094785;28;20248;-41
2022/10/09 05:05:42;;;;;;;46.53;26.47;;;;;;;;;;5094836;28;20275;-40
2022/10/09 05:08:07;;;;;;;44.40;24.05;;;;;;;;;;5094410;28;20237;-41
2022/10/09 05:10:33;;;;;;;46.55;25.33;;;;;;;;;;5094505;28;20039;-42
2022/10/09 05:12:58;;;;;;;44.30;26.83;;;;;;;;;;5094334;28;20027;-41
2022/10/09 05:15:24;;;;;;;58.60;28.13;;;;;;;;;;5094426;28;20028;-43
2022/10/09 05:17:49;;;;;;;54.33;26.17;;;;;;;;;;5094245;28;20100;-41
2022/10/09 05:20:14;;;;;;;49.77;25.10;;;;;;;;;;5094656;28;20052;-42
2022/10/09 05:22:42;;;;;;;55.45;27.98;;;;;;;;;;5094143;28;20293;-41
2022/10/09 05:25:07;;;;;;;61.35;27.92;;;;;;;;;;5094083;28;20016;-40
2022/10/09 05:27:33;;;;;;;55.60;26.52;;;;;;;;;;5093909;28;20122;-42
2022/10/09 05:29:58;;;;;;;53.63;28.43;;;;;;;;;;5094492;28;20074;-42
2022/10/09 05:32:23;;;;;;;62.10;27.90;;;;;;;;;;5094216;28;20298;-38
2022/10/09 05:34:48;;;;;;;44.80;26.93;;;;;;;;;;5093961;28;20012;-42
2022/10/09 05:37:14;;;;;;;52.80;29.67;;;;;;;;;;5094046;28;20237;-40
2022/10/09 05:39:39;;;;;;;52.23;28.20;;;;;;;;;;5093987;28;20253;-43
2022/10/09 05:42:04;;;;;;;54.30;26.07;;;;;;;;;;5093630;28;20344;-40
2022/10/09 05:44:29;;;;;;;47.83;26.47;;;;;;;;;;5094158;28;20240;-39
2022/10/09 05:46:55;;;;;;;49.23;28.07;;;;;;;;;;5093580;28;20251;-43
2022/10/09 05:49:20;;;;;;;52.83;26.43;;;;;;;;;;5093568;28;20763;-40
2022/10/09 05:51:45;;;;;;;39.38;25.25;;;;;;;;;;5092160;28;20633;-41
2022/10/09 05:54:13;;;;;;;45.92;26.42;;;;;;;;;;5092604;28;20044;-42
2022/10/09 05:56:39;;;;;;;39.33;25.13;;;;;;;;;;5093243;28;20533;-41
2022/10/09 05:59:05;;;;;;;38.15;25.33;;;;;;;;;;5093607;28;20107;-41
2022/10/09 06:01:32;;;;;;;33.65;22.02;;;;;;;;;;5093723;28;20015;-41
2022/10/09 06:03:58;;;;;;;40.83;24.20;;;;;;;;;;5093543;28;20024;-43
2022/10/09 06:06:25;;;;;;;29.42;20.20;;;;;;;;;;5093524;28;20024;-42
2022/10/09 06:08:50;;;;;;;32.30;21.75;;;;;;;;;;5093464;28;20048;-41
2022/10/09 06:11:17;;;;;;;31.50;21.03;;;;;;;;;;5093381;28;20075;-42
2022/10/09 06:13:42;;;;;;;24.60;18.00;;;;;;;;;;5093585;28;20248;-40
2022/10/09 06:16:10;;;;;;;28.08;17.98;;;;;;;;;;5093490;28;20032;-38
2022/10/09 06:18:35;;;;;;;25.38;16.95;;;;;;;;;;5093493;28;20027;-39
2022/10/09 06:21:01;;;;;;;29.13;19.55;;;;;;;;;;5093243;28;20020;-41
2022/10/09 06:23:26;;;;;;;24.73;17.40;;;;;;;;;;5093229;28;20024;-40
2022/10/09 06:25:55;;;;;;;22.92;16.25;;;;;;;;;;5093054;28;20055;-41
2022/10/09 06:28:21;;;;;;;25.50;16.42;;;;;;;;;;5093083;28;20451;-41
2022/10/09 06:30:46;;;;;;;25.10;17.00;;;;;;;;;;5093021;28;20039;-43
2022/10/09 06:33:12;;;;;;;20.38;16.15;;;;;;;;;;5093257;28;20016;-41
2022/10/09 06:35:37;;;;;;;23.10;15.87;;;;;;;;;;5093324;28;20032;-41
2022/10/09 06:38:02;;;;;;;25.37;17.50;;;;;;;;;;5093125;28;20272;-40
2022/10/09 06:40:27;;;;;;;22.43;16.10;;;;;;;;;;5093003;28;20460;-41
2022/10/09 06:42:53;;;;;;;21.50;16.37;;;;;;;;;;5092796;28;20237;-41
2022/10/09 06:45:18;;;;;;;22.20;15.95;;;;;;;;;;5093139;28;20229;-42
2022/10/09 06:47:43;;;;;;;25.60;17.37;;;;;;;;;;5093273;28;20038;-39
2022/10/09 06:50:08;;;;;;;19.23;14.30;;;;;;;;;;5093309;28;20261;-43
2022/10/09 06:52:34;;;;;;;24.85;17.60;;;;;;;;;;5093001;28;20032;-43
2022/10/09 06:54:59;;;;;;;27.83;18.50;;;;;;;;;;5092789;28;20020;-42
2022/10/09 06:57:24;;;;;;;23.65;16.80;;;;;;;;;;5092475;28;20237;-41
2022/10/09 06:59:50;;;;;;;21.77;15.93;;;;;;;;;;5093097;28;20052;-40
2022/10/09 07:02:16;;;;;;;20.40;16.40;;;;;;;;;;5092871;28;20244;-38
2022/10/09 07:04:41;;;;;;;27.77;17.27;;;;;;;;;;5096078;28;20020;-42
2022/10/09 07:07:06;;;;;;;22.67;15.10;;;;;;;;;;5097156;28;20637;-42
2022/10/09 07:09:31;;;;;;;23.73;16.13;;;;;;;;;;5097412;28;20252;-41
2022/10/09 07:11:56;;;;;;;21.27;14.97;;;;;;;;;;5096741;28;20020;-42
2022/10/09 07:14:22;;;;;;;24.50;15.53;;;;;;;;;;5096857;28;20764;-38
2022/10/09 07:16:47;;;;;;;27.10;16.33;;;;;;;;;;5096861;28;20304;-43
2022/10/09 07:19:14;;;;;;;24.02;15.68;;;;;;;;;;5096865;28;20245;-41
2022/10/09 07:21:40;;;;;;;18.95;14.93;;;;;;;;;;5096780;28;20028;-38
2022/10/09 07:24:06;;;;;;;22.33;16.70;;;;;;;;;;5096615;28;20028;-41
2022/10/09 07:26:32;;;;;;;22.75;16.35;;;;;;;;;;5096607;28;20012;-43
2022/10/09 07:28:58;;;;;;;20.95;14.50;;;;;;;;;;5096613;28;20024;-42
2022/10/09 07:31:23;;;;;;;18.55;13.63;;;;;;;;;;5096707;28;20024;-39
2022/10/09 07:33:49;;;;;;;21.33;13.77;;;;;;;;;;5096608;28;20021;-41
2022/10/09 07:36:15;;;;;;;16.02;12.85;;;;;;;;;;5096568;28;20032;-41
2022/10/09 07:38:40;;;;;;;16.92;12.57;;;;;;;;;;5078092;28;20382;-42
2022/10/09 07:41:07;;;;;;;18.37;11.47;;;;;;;;;;5096161;28;20027;-42
2022/10/09 07:43:36;;;;;;;19.27;11.30;;;;;;;;;;5096094;28;20017;-42
2022/10/09 07:46:01;;;;;;;;;;;;;;;;;;5096743;28;20127;-39
2022/10/09 07:48:27;;;;;;;16.27;11.38;;;;;;;;;;5096261;28;20002;-43
2022/10/09 07:50:52;;;;;;;13.43;10.25;;;;;;;;;;5096142;28;20482;-43
2022/10/09 07:53:17;;;;;;;18.70;10.23;;;;;;;;;;5096328;28;20039;-43
2022/10/09 07:55:43;;;;;;;15.75;10.48;;;;;;;;;;5096197;28;20074;-38
2022/10/09 07:58:08;;;;;;;14.07;10.52;;;;;;;;;;5095774;28;20049;-40
2022/10/09 08:00:34;;;;;;;14.13;9.10;;;;;;;;;;5095995;28;20019;-40
2022/10/09 08:02:59;;;;;;;14.97;9.40;;;;;;;;;;5096058;28;20016;-40
2022/10/09 08:05:24;;;;;;;12.50;9.17;;;;;;;;;;5096231;28;20344;-40
2022/10/09 08:07:50;;;;;;;15.60;8.40;;;;;;;;;;5095554;28;20519;-39
2022/10/09 08:10:15;;;;;;;14.25;9.57;;;;;;;;;;5095671;28;20020;-39
2022/10/09 08:12:40;;;;;;;15.82;8.73;;;;;;;;;;5094826;28;20024;-42
2022/10/09 08:15:06;;;;;;;12.70;8.57;;;;;;;;;;5094143;28;20513;-39
2022/10/09 08:17:31;;;;;;;24.50;9.52;;;;;;;;;;5095179;28;20026;-39
2022/10/09 08:19:57;;;;;;;14.33;7.63;;;;;;;;;;5077065;28;20080;-40
2022/10/09 08:22:22;;;;;;;12.95;8.07;;;;;;;;;;5095269;28;20636;-42
2022/10/09 08:24:48;;;;;;;10.93;7.50;;;;;;;;;;5093997;28;20023;-43
2022/10/09 08:27:13;;;;;;;13.33;8.27;;;;;;;;;;5094171;28;20069;-42
2022/10/09 08:29:38;;;;;;;9.50;7.20;;;;;;;;;;5095345;28;20275;-42
2022/10/09 08:32:03;;;;;;;23.57;8.67;;;;;;;;;;5094265;28;20012;-37
2022/10/09 08:34:29;;;;;;;9.93;7.10;;;;;;;;;;5093930;28;20452;-43
2022/10/09 08:36:54;;;;;;;10.43;7.00;;;;;;;;;;5094018;28;20036;-42
2022/10/09 08:39:19;;;;;;;12.60;8.27;;;;;;;;;;5094062;28;20019;-42
2022/10/09 08:41:44;;;;;;;10.73;7.90;;;;;;;;;;5093021;28;20043;-42
2022/10/09 08:44:12;;;;;;;11.20;7.53;;;;;;;;;;5093648;28;20035;-40
2022/10/09 08:47:07;;;;;;;11.82;7.00;;;;;;;;;;5093930;28;20256;-44
2022/10/09 08:49:44;;;;;;;12.40;7.20;;;;;;;;;;5003716;28;20517;-43
2022/10/09 08:52:14;;;;;;;8.38;6.80;;;;;;;;;;5093915;28;20395;-42
2022/10/09 08:54:40;;;;;;;14.98;8.15;;;;;;;;;;5094250;28;20023;-41
2022/10/09 08:57:09;;;;;;;13.63;7.47;;;;;;;;;;5094907;28;20494;-42
2022/10/09 08:59:35;;;;;;;8.25;5.90;;;;;;;;;;5095051;28;20027;-39
2022/10/09 09:02:19;;;;;;;8.65;6.38;;;;;;;;;;5094839;28;20028;-41
2022/10/09 09:04:47;;;;;;;11.15;7.22;;;;;;;;;;5094672;28;20073;-42
2022/10/09 09:07:38;;;;;;;14.70;6.72;;;;;;;;;;5095010;28;20024;-40
2022/10/09 09:10:19;;;;;;;11.80;6.90;;;;;;;;;;5089184;28;20028;-42
2022/10/09 09:13:16;;;;;;;13.02;7.13;;;;;;;;;;5094208;28;20069;-37
2022/10/09 09:15:47;;;;;;;8.77;6.03;;;;;;;;;;5038792;28;20486;-40
2022/10/09 09:18:20;;;;;;;8.57;6.43;;;;;;;;;;5094501;28;20032;-39
2022/10/09 09:21:03;;;;;;;11.90;6.82;;;;;;;;;;5094360;28;20024;-39
2022/10/09 09:23:30;;;;;;;10.63;7.03;;;;;;;;;;5094166;28;20024;-41
2022/10/09 09:25:55;;;;;;;14.10;7.57;;;;;;;;;;5094087;28;20020;-41
2022/10/09 09:28:26;;;;;;;9.93;7.47;;;;;;;;;;5094837;28;20027;-42
2022/10/09 09:31:13;;;;;;;8.23;7.05;;;;;;;;;;5094362;28;20023;-39
2022/10/09 09:33:41;;;;;;;8.93;6.80;;;;;;;;;;5094157;28;20489;-41
2022/10/09 09:36:10;;;;;;;12.27;8.75;;;;;;;;;;5094095;28;20038;-40
2022/10/09 09:38:36;;;;;;;10.05;7.45;;;;;;;;;;5076239;28;20118;-43
2022/10/09 09:41:02;;;;;;;9.95;7.63;;;;;;;;;;5094174;28;20415;-41
2022/10/09 09:43:28;;;;;;;8.77;6.40;;;;;;;;;;5093951;28;20026;-42
2022/10/09 09:45:57;;;;;;;12.27;7.73;;;;;;;;;;5094222;28;20020;-42
2022/10/09 09:48:36;;;;;;;12.88;8.27;;;;;;;;;;5093699;28;20289;-40
2022/10/09 09:51:21;;;;;;;9.15;6.85;;;;;;;;;;5093560;28;20417;-40
2022/10/09 09:54:06;;;;;;;13.00;7.35;;;;;;;;;;5093324;28;20499;-40
2022/10/09 09:56:42;;;;;;;18.48;9.00;;;;;;;;;;5093832;28;20067;-40
2022/10/09 09:59:24;;;;;;;11.48;6.78;;;;;;;;;;5093599;28;20031;-40
2022/10/09 10:01:57;;;;;;;11.07;7.95;;;;;;;;;;5093606;28;20022;-40
2022/10/09 10:04:27;;;;;;;11.95;7.30;;;;;;;;;;5093778;28;20429;-42
2022/10/09 10:06:52;;;;;;;11.00;7.38;;;;;;;;;;5093547;28;20020;-40
2022/10/09 10:09:18;;;;;;;13.43;8.15;;;;;;;;;;5093805;28;20008;-42
2022/10/09 10:11:45;;;;;;;12.38;7.93;;;;;;;;;;5093301;28;20024;-40
2022/10/09 10:14:14;;;;;;;11.55;7.20;;;;;;;;;;5093571;28;20051;-41
2022/10/09 10:16:39;;;;;;;;;;;;;;;;;;5093820;28;20119;-40
2022/10/09 10:19:07;;;;;;;11.90;7.10;;;;;;;;;;5093572;28;19935;-39
2022/10/09 10:21:53;;;;;;;15.77;8.30;;;;;;;;;;5093541;28;20455;-36
2022/10/09 10:24:21;;;;;;;13.70;9.00;;;;;;;;;;5092281;28;20058;-39
2022/10/09 10:26:48;;;;;;;15.60;9.30;;;;;;;;;;5093145;28;20441;-41
2022/10/09 10:29:14;;;;;;;12.15;8.43;;;;;;;;;;5093484;28;20479;-41
2022/10/09 10:31:54;;;;;;;10.90;7.30;;;;;;;;;;5093595;28;20020;-39
2022/10/09 10:34:24;;;;;;;13.30;8.00;;;;;;;;;;5093099;28;20016;-37
2022/10/09 10:36:55;;;;;;;13.98;9.10;;;;;;;;;;5092980;28;20111;-40
2022/10/09 10:39:24;;;;;;;14.75;8.75;;;;;;;;;;5092826;28;20019;-42
2022/10/09 10:41:49;;;;;;;;;;;;;;;;;;5093453;28;20059;-37
2022/10/09 10:44:24;;;;;;;13.93;8.82;;;;;;;;;;5093109;28;19969;-42
2022/10/09 10:46:52;;;;;;;13.52;7.55;;;;;;;;;;5092921;28;20020;-41
2022/10/09 10:49:19;;;;;;;13.13;8.27;;;;;;;;;;5092891;28;20052;-44
2022/10/09 10:52:03;;;;;;;11.98;6.90;;;;;;;;;;5092771;28;20233;-38
2022/10/09 10:54:38;;;;;;;17.35;8.40;;;;;;;;;;5092645;28;20024;-40
2022/10/09 10:57:08;;;;;;;12.60;8.15;;;;;;;;;;5092890;28;20035;-40
2022/10/09 10:59:50;;;;;;;17.52;8.68;;;;;;;;;;5093020;28;20016;-42
2022/10/09 11:02:19;;;;;;;18.33;8.77;;;;;;;;;;5093067;28;20024;-38
2022/10/09 11:04:48;;;;;;;14.52;7.85;;;;;;;;;;5092876;28;20024;-42
2022/10/09 11:07:30;;;;;;;11.48;8.05;;;;;;;;;;5092930;28;20020;-41
2022/10/09 11:09:55;;;;;;;15.70;8.00;;;;;;;;;;5092672;28;20035;-42
2022/10/09 11:12:29;;;;;;;12.20;7.77;;;;;;;;;;5092651;28;20016;-41
2022/10/09 11:15:01;;;;;;;9.93;6.60;;;;;;;;;;5092776;28;20097;-35
2022/10/09 11:17:27;;;;;;;14.65;7.95;;;;;;;;;;5092758;28;20035;-39
2022/10/09 11:19:52;;;;;;;13.27;7.27;;;;;;;;;;5092874;28;20012;-40
2022/10/09 11:22:37;;;;;;;12.53;7.47;;;;;;;;;;5092959;28;20016;-43
2022/10/09 11:25:27;;;;;;;14.80;8.00;;;;;;;;;;5092484;28;20032;-37
2022/10/09 11:28:06;;;;;;;12.57;7.10;;;;;;;;;;5092664;28;20032;-41
2022/10/09 11:30:51;;;;;;;15.23;7.43;;;;;;;;;;5092931;28;20028;-41
2022/10/09 11:33:29;;;;;;;8.52;7.15;;;;;;;;;;5091637;28;20042;-42
2022/10/09 11:36:09;;;;;;;10.88;6.70;;;;;;;;;;5092518;28;20036;-40
2022/10/09 11:38:34;;;;;;;;;;;;;;;;;;5093060;28;20031;-37
2022/10/09 11:40:59;;;;;;;9.00;6.60;;;;;;;;;;5092519;28;19904;-40
2022/10/09 11:43:25;;;;;;;13.70;6.88;;;;;;;;;;5092278;28;20027;-40
2022/10/09 11:46:08;;;;;;;13.10;6.53;;;;;;;;;;5092295;28;20099;-41
2022/10/09 11:48:52;;;;;;;12.07;6.50;;;;;;;;;;5092234;28;20051;-40
2022/10/09 11:51:32;;;;;;;14.00;6.05;;;;;;;;;;5094553;28;20020;-42
2022/10/09 11:53:58;;;;;;;14.25;6.60;;;;;;;;;;5096098;28;20475;-43
2022/10/09 11:56:27;;;;;;;12.02;6.82;;;;;;;;;;5096071;28;20040;-39
2022/10/09 11:58:56;;;;;;;16.80;6.28;;;;;;;;;;5096149;28;20020;-36
2022/10/09 12:01:23;;;;;;;14.90;7.00;;;;;;;;;;5096172;28;20032;-41
2022/10/09 12:03:58;;;;;;;12.90;7.10;;;;;;;;;;5095931;28;20016;-42
2022/10/09 12:06:23;;;;;;;8.93;6.43;;;;;;;;;;5095809;28;20020;-40
2022/10/09 12:08:54;;;;;;;10.27;5.83;;;;;;;;;;5095967;28;20065;-42
2022/10/09 12:11:20;;;;;;;14.98;6.40;;;;;;;;;;5077699;28;20385;-43
2022/10/09 12:13:50;;;;;;;13.73;6.97;;;;;;;;;;5095933;28;20027;-36
2022/10/09 12:16:28;;;;;;;9.98;6.05;;;;;;;;;;5095675;28;20032;-41
2022/10/09 12:18:53;;;;;;;13.77;6.82;;;;;;;;;;5095770;28;20455;-41
2022/10/09 12:21:30;;;;;;;12.13;6.97;;;;;;;;;;5095429;28;20020;-41
2022/10/09 12:23:56;;;;;;;11.35;5.75;;;;;;;;;;5095730;28;20482;-41
2022/10/09 12:26:23;;;;;;;11.88;5.57;;;;;;;;;;5095847;28;20070;-39
2022/10/09 12:28:50;;;;;;;10.63;6.10;;;;;;;;;;5095520;28;20012;-38
2022/10/09 12:31:38;;;;;;;12.23;5.82;;;;;;;;;;5095485;28;20024;-41
2022/10/09 12:34:13;;;;;;;8.98;5.72;;;;;;;;;;5081427;28;20043;-41
2022/10/09 12:36:38;;;;;;;8.93;6.05;;;;;;;;;;5095365;28;20107;-40
2022/10/09 12:39:33;;;;;;;8.43;5.73;;;;;;;;;;5095332;28;20107;-40
2022/10/09 12:41:58;;;;;;;10.90;6.40;;;;;;;;;;5073127;28;20479;-42
2022/10/09 12:44:31;;;;;;;7.30;5.63;;;;;;;;;;5094944;28;20027;-39
2022/10/09 12:47:05;;;;;;;9.00;6.25;;;;;;;;;;5095285;28;20024;-37
2022/10/09 12:49:30;;;;;;;13.30;6.95;;;;;;;;;;5094996;28;20056;-41
2022/10/09 12:51:56;;;;;;;15.10;8.75;;;;;;;;;;5095014;28;20509;-41
2022/10/09 12:54:23;;;;;;;16.73;7.60;;;;;;;;;;5095343;28;20024;-41
2022/10/09 12:56:49;;;;;;;9.27;5.90;;;;;;;;;;5094791;28;20035;-37
2022/10/09 12:59:15;;;;;;;8.80;6.25;;;;;;;;;;5095141;28;20103;-41
2022/10/09 13:01:41;;;;;;;9.15;5.78;;;;;;;;;;5094642;28;20382;-40
2022/10/09 13:04:08;;;;;;;11.90;6.57;;;;;;;;;;5094878;28;20020;-42
2022/10/09 13:06:33;;;;;;;10.23;5.97;;;;;;;;;;5094956;28;20024;-42
2022/10/09 13:08:59;;;;;;;9.47;5.30;;;;;;;;;;5094637;28;20443;-41
2022/10/09 13:11:51;;;;;;;10.52;5.93;;;;;;;;;;5094610;28;20493;-39
2022/10/09 13:14:31;;;;;;;10.82;5.55;;;;;;;;;;5055617;28;20028;-39
2022/10/09 13:16:56;;;;;;;12.65;6.70;;;;;;;;;;5094448;28;20063;-37
2022/10/09 13:19:29;;;;;;;15.10;7.23;;;;;;;;;;5094635;28;20109;-41
2022/10/09 13:22:12;;;;;;;9.05;5.45;;;;;;;;;;5094485;28;20202;-42
2022/10/09 13:24:38;;;;;;;17.75;7.30;;;;;;;;;;5094532;28;20024;-41
2022/10/09 13:27:03;;;;;;;13.30;8.57;;;;;;;;;;5094429;28;20016;-39
2022/10/09 13:29:28;;;;;;;14.18;7.13;;;;;;;;;;5094319;28;20035;-42
2022/10/09 13:31:54;;;;;;;16.52;6.95;;;;;;;;;;5094347;28;20023;-41
2022/10/09 13:34:22;;;;;;;10.53;5.30;;;;;;;;;;5094476;28;20020;-40
2022/10/09 13:36:47;;;;;;;5.97;4.72;;;;;;;;;;5093688;28;20538;-39
2022/10/09 13:39:13;;;;;;;9.13;5.23;;;;;;;;;;5093998;28;20104;-40
2022/10/09 13:41:39;;;;;;;8.73;5.72;;;;;;;;;;5093929;28;20455;-42
2022/10/09 13:44:04;;;;;;;10.57;5.25;;;;;;;;;;5094039;28;20067;-40
2022/10/09 13:46:29;;;;;;;8.90;4.97;;;;;;;;;;5094044;28;20042;-39
2022/10/09 13:48:54;;;;;;;14.43;4.30;;;;;;;;;;5094352;28;20047;-39
2022/10/09 13:51:20;;;;;;;10.70;3.53;;;;;;;;;;5093625;28;20019;-41
2022/10/09 13:53:45;;;;;;;8.35;4.10;;;;;;;;;;5093963;28;20252;-40
2022/10/09 13:56:11;;;;;;;9.87;4.50;;;;;;;;;;5093993;28;20403;-39
2022/10/09 13:58:36;;;;;;;10.93;4.38;;;;;;;;;;5093681;28;20047;-39
2022/10/09 14:01:01;;;;;;;8.20;4.83;;;;;;;;;;5093748;28;20055;-36
2022/10/09 14:03:26;;;;;;;10.87;5.10;;;;;;;;;;5093774;28;20024;-41
2022/10/09 14:05:58;;;;;;;9.37;5.83;;;;;;;;;;5093538;28;20023;-42
2022/10/09 14:08:23;;;;;;;9.75;4.35;;;;;;;;;;5093800;28;20731;-41
2022/10/09 14:10:49;;;;;;;8.13;4.00;;;;;;;;;;5093580;28;20016;-40
2022/10/09 14:13:14;;;;;;;6.73;4.23;;;;;;;;;;5092814;28;20233;-42
2022/10/09 14:15:40;;;;;;;11.57;4.20;;;;;;;;;;5093434;28;20280;-37
2022/10/09 14:18:05;;;;;;;10.43;3.85;;;;;;;;;;5093803;28;20290;-42
2022/10/09 14:20:31;;;;;;;7.65;4.78;;;;;;;;;;5093252;28;20019;-42
2022/10/09 14:22:56;;;;;;;6.03;4.22;;;;;;;;;;5091470;28;20081;-39
2022/10/09 14:25:21;;;;;;;8.33;3.83;;;;;;;;;;5091443;28;20034;-39
2022/10/09 14:27:46;;;;;;;7.07;3.67;;;;;;;;;;5091919;28;20256;-40
2022/10/09 14:30:12;;;;;;;9.80;3.83;;;;;;;;;;5091947;28;20055;-42